sensor_id;sensor_type;location;lat;lon;timestamp;P1;P2;P0
67802;PMS5003;54601;51.378;-1.342;2023-06-14T00:00:05;16;16;
67802;PMS5003;54601;51.378;-1.342;2023-06-14T00:02:30;18;18;
67802;PMS5003;54601;51.378;-1.342;2023-06-14T00:04:55;15;15;
67802;PMS5003;54601;51.378;-1.342;2023-06-14T00:07:22;15;15;
67802;PMS5003;54601;51.378;-1.342;2023-06-14T00:09:46;15;15;
67802;PMS5003;54601;51.378;-1.342;2023-06-14T00:12:11;16;16;
67802;PMS5003;54601;51.378;-1.342;2023-06-14T00:14:37;16;15;
67802;PMS5003;54601;51.378;-1.342;2023-06-14T00:17:02;15;14;
67802;PMS5003;54601;51.378;-1.342;2023-06-14T00:19:27;13;13;
67802;PMS5003;54601;51.378;-1.342;2023-06-14T00:21:52;15;15;
67802;PMS5003;54601;51.378;-1.342;2023-06-14T00:24:17;12;12;
67802;PMS5003;54601;51.378;-1.342;2023-06-14T00:26:43;15;15;
67802;PMS5003;54601;51.378;-1.342;2023-06-14T00:29:08;13;13;
67802;PMS5003;54601;51.378;-1.342;2023-06-14T00:31:33;15;15;
67802;PMS5003;54601;51.378;-1.342;2023-06-14T00:33:58;15;15;
67802;PMS5003;54601;51.378;-1.342;2023-06-14T00:36:23;15;15;
67802;PMS5003;54601;51.378;-1.342;2023-06-14T00:38:49;15;15;
67802;PMS5003;54601;51.378;-1.342;2023-06-14T00:41:14;16;16;
67802;PMS5003;54601;51.378;-1.342;2023-06-14T00:43:40;15;14;
67802;PMS5003;54601;51.378;-1.342;2023-06-14T00:46:05;14;14;
67802;PMS5003;54601;51.378;-1.342;2023-06-14T00:48:30;15;15;
67802;PMS5003;54601;51.378;-1.342;2023-06-14T00:50:56;15;15;
67802;PMS5003;54601;51.378;-1.342;2023-06-14T00:53:21;14;14;
67802;PMS5003;54601;51.378;-1.342;2023-06-14T00:55:47;14;14;
67802;PMS5003;54601;51.378;-1.342;2023-06-14T00:58:12;16;15;
67802;PMS5003;54601;51.378;-1.342;2023-06-14T01:00:37;16;16;
67802;PMS5003;54601;51.378;-1.342;2023-06-14T01:03:03;15;15;
67802;PMS5003;54601;51.378;-1.342;2023-06-14T01:05:28;13;13;
67802;PMS5003;54601;51.378;-1.342;2023-06-14T01:07:58;13;13;
67802;PMS5003;54601;51.378;-1.342;2023-06-14T01:10:22;15;15;
67802;PMS5003;54601;51.378;-1.342;2023-06-14T01:12:46;13;13;
67802;PMS5003;54601;51.378;-1.342;2023-06-14T01:15:09;14;14;
67802;PMS5003;54601;51.378;-1.342;2023-06-14T01:17:35;13;13;
67802;PMS5003;54601;51.378;-1.342;2023-06-14T01:20:01;17;16;
67802;PMS5003;54601;51.378;-1.342;2023-06-14T01:22:25;14;14;
67802;PMS5003;54601;51.378;-1.342;2023-06-14T01:24:50;15;15;
67802;PMS5003;54601;51.378;-1.342;2023-06-14T01:27:16;15;14;
67802;PMS5003;54601;51.378;-1.342;2023-06-14T01:29:41;14;14;
67802;PMS5003;54601;51.378;-1.342;2023-06-14T01:32:06;16;16;
67802;PMS5003;54601;51.378;-1.342;2023-06-14T01:34:31;16;16;
67802;PMS5003;54601;51.378;-1.342;2023-06-14T01:36:57;15;14;
67802;PMS5003;54601;51.378;-1.342;2023-06-14T01:39:22;12;12;
67802;PMS5003;54601;51.378;-1.342;2023-06-14T01:41:47;12;12;
67802;PMS5003;54601;51.378;-1.342;2023-06-14T01:44:13;14;14;
67802;PMS5003;54601;51.378;-1.342;2023-06-14T01:46:38;14;12;
67802;PMS5003;54601;51.378;-1.342;2023-06-14T01:49:03;15;14;
67802;PMS5003;54601;51.378;-1.342;2023-06-14T01:51:28;15;14;
67802;PMS5003;54601;51.378;-1.342;2023-06-14T01:53:54;15;15;
67802;PMS5003;54601;51.378;-1.342;2023-06-14T01:56:19;15;15;
67802;PMS5003;54601;51.378;-1.342;2023-06-14T01:58:44;14;14;
67802;PMS5003;54601;51.378;-1.342;2023-06-14T02:01:09;15;15;
67802;PMS5003;54601;51.378;-1.342;2023-06-14T02:03:35;14;14;
67802;PMS5003;54601;51.378;-1.342;2023-06-14T02:06:00;15;14;
67802;PMS5003;54601;51.378;-1.342;2023-06-14T02:08:25;13;13;
67802;PMS5003;54601;51.378;-1.342;2023-06-14T02:10:51;16;16;
67802;PMS5003;54601;51.378;-1.342;2023-06-14T02:13:16;16;15;
67802;PMS5003;54601;51.378;-1.342;2023-06-14T02:15:41;13;13;
67802;PMS5003;54601;51.378;-1.342;2023-06-14T02:18:06;15;15;
67802;PMS5003;54601;51.378;-1.342;2023-06-14T02:20:32;15;15;
67802;PMS5003;54601;51.378;-1.342;2023-06-14T02:22:57;15;15;
67802;PMS5003;54601;51.378;-1.342;2023-06-14T02:25:22;15;15;
67802;PMS5003;54601;51.378;-1.342;2023-06-14T02:27:48;14;14;
67802;PMS5003;54601;51.378;-1.342;2023-06-14T02:30:13;13;13;
67802;PMS5003;54601;51.378;-1.342;2023-06-14T02:32:38;14;14;
67802;PMS5003;54601;51.378;-1.342;2023-06-14T02:35:04;15;15;
67802;PMS5003;54601;51.378;-1.342;2023-06-14T02:37:29;11;11;
67802;PMS5003;54601;51.378;-1.342;2023-06-14T02:39:54;14;14;
67802;PMS5003;54601;51.378;-1.342;2023-06-14T02:42:19;12;12;
67802;PMS5003;54601;51.378;-1.342;2023-06-14T02:44:44;15;14;
67802;PMS5003;54601;51.378;-1.342;2023-06-14T02:47:09;14;13;
67802;PMS5003;54601;51.378;-1.342;2023-06-14T02:49:35;12;11;
67802;PMS5003;54601;51.378;-1.342;2023-06-14T02:52:00;13;13;
67802;PMS5003;54601;51.378;-1.342;2023-06-14T02:54:25;14;14;
67802;PMS5003;54601;51.378;-1.342;2023-06-14T02:56:50;13;13;
67802;PMS5003;54601;51.378;-1.342;2023-06-14T02:59:15;12;12;
67802;PMS5003;54601;51.378;-1.342;2023-06-14T03:01:41;13;13;
67802;PMS5003;54601;51.378;-1.342;2023-06-14T03:04:06;12;11;
67802;PMS5003;54601;51.378;-1.342;2023-06-14T03:06:31;14;14;
67802;PMS5003;54601;51.378;-1.342;2023-06-14T03:08:57;11;11;
67802;PMS5003;54601;51.378;-1.342;2023-06-14T03:11:22;12;11;
67802;PMS5003;54601;51.378;-1.342;2023-06-14T03:13:47;12;12;
67802;PMS5003;54601;51.378;-1.342;2023-06-14T03:16:12;11;11;
67802;PMS5003;54601;51.378;-1.342;2023-06-14T03:18:38;10;10;
67802;PMS5003;54601;51.378;-1.342;2023-06-14T03:21:03;10;10;
67802;PMS5003;54601;51.378;-1.342;2023-06-14T03:23:28;13;11;
67802;PMS5003;54601;51.378;-1.342;2023-06-14T03:25:54;13;13;
67802;PMS5003;54601;51.378;-1.342;2023-06-14T03:28:19;9;9;
67802;PMS5003;54601;51.378;-1.342;2023-06-14T03:30:44;11;11;
67802;PMS5003;54601;51.378;-1.342;2023-06-14T03:33:10;11;10;
67802;PMS5003;54601;51.378;-1.342;2023-06-14T03:35:35;10;10;
67802;PMS5003;54601;51.378;-1.342;2023-06-14T03:38:00;13;13;
67802;PMS5003;54601;51.378;-1.342;2023-06-14T03:40:26;10;10;
67802;PMS5003;54601;51.378;-1.342;2023-06-14T03:42:51;9;9;
67802;PMS5003;54601;51.378;-1.342;2023-06-14T03:45:16;9;9;
67802;PMS5003;54601;51.378;-1.342;2023-06-14T03:47:42;11;10;
67802;PMS5003;54601;51.378;-1.342;2023-06-14T03:50:07;10;10;
67802;PMS5003;54601;51.378;-1.342;2023-06-14T03:52:33;9;9;
67802;PMS5003;54601;51.378;-1.342;2023-06-14T03:54:58;9;9;
67802;PMS5003;54601;51.378;-1.342;2023-06-14T03:57:23;10;10;
67802;PMS5003;54601;51.378;-1.342;2023-06-14T03:59:48;11;10;
67802;PMS5003;54601;51.378;-1.342;2023-06-14T04:02:14;9;9;
67802;PMS5003;54601;51.378;-1.342;2023-06-14T04:04:39;9;9;
67802;PMS5003;54601;51.378;-1.342;2023-06-14T04:07:04;10;10;
67802;PMS5003;54601;51.378;-1.342;2023-06-14T04:09:30;10;10;
67802;PMS5003;54601;51.378;-1.342;2023-06-14T04:11:55;10;10;
67802;PMS5003;54601;51.378;-1.342;2023-06-14T04:14:20;10;10;
67802;PMS5003;54601;51.378;-1.342;2023-06-14T04:16:46;9;9;
67802;PMS5003;54601;51.378;-1.342;2023-06-14T04:19:11;8;8;
67802;PMS5003;54601;51.378;-1.342;2023-06-14T04:21:36;8;8;
67802;PMS5003;54601;51.378;-1.342;2023-06-14T04:24:02;8;8;
67802;PMS5003;54601;51.378;-1.342;2023-06-14T04:26:27;10;10;
67802;PMS5003;54601;51.378;-1.342;2023-06-14T04:28:52;9;9;
67802;PMS5003;54601;51.378;-1.342;2023-06-14T04:31:17;9;9;
67802;PMS5003;54601;51.378;-1.342;2023-06-14T04:33:43;8;8;
67802;PMS5003;54601;51.378;-1.342;2023-06-14T04:36:08;6;6;
67802;PMS5003;54601;51.378;-1.342;2023-06-14T04:38:34;8;8;
67802;PMS5003;54601;51.378;-1.342;2023-06-14T04:40:59;8;8;
67802;PMS5003;54601;51.378;-1.342;2023-06-14T04:43:24;8;8;
67802;PMS5003;54601;51.378;-1.342;2023-06-14T04:45:50;9;9;
67802;PMS5003;54601;51.378;-1.342;2023-06-14T04:48:15;9;9;
67802;PMS5003;54601;51.378;-1.342;2023-06-14T04:50:40;8;8;
67802;PMS5003;54601;51.378;-1.342;2023-06-14T04:53:06;8;8;
67802;PMS5003;54601;51.378;-1.342;2023-06-14T04:55:31;8;7;
67802;PMS5003;54601;51.378;-1.342;2023-06-14T04:57:56;7;7;
67802;PMS5003;54601;51.378;-1.342;2023-06-14T05:00:22;8;7;
67802;PMS5003;54601;51.378;-1.342;2023-06-14T05:02:47;8;8;
67802;PMS5003;54601;51.378;-1.342;2023-06-14T05:05:12;8;7;
67802;PMS5003;54601;51.378;-1.342;2023-06-14T05:07:37;7;7;
67802;PMS5003;54601;51.378;-1.342;2023-06-14T05:10:03;9;8;
67802;PMS5003;54601;51.378;-1.342;2023-06-14T05:12:28;8;8;
67802;PMS5003;54601;51.378;-1.342;2023-06-14T05:14:53;8;8;
67802;PMS5003;54601;51.378;-1.342;2023-06-14T05:17:19;7;7;
67802;PMS5003;54601;51.378;-1.342;2023-06-14T05:19:44;8;8;
67802;PMS5003;54601;51.378;-1.342;2023-06-14T05:22:10;8;8;
67802;PMS5003;54601;51.378;-1.342;2023-06-14T05:24:35;7;7;
67802;PMS5003;54601;51.378;-1.342;2023-06-14T05:27:00;7;7;
67802;PMS5003;54601;51.378;-1.342;2023-06-14T05:29:26;6;6;
67802;PMS5003;54601;51.378;-1.342;2023-06-14T05:31:51;7;7;
67802;PMS5003;54601;51.378;-1.342;2023-06-14T05:34:16;6;6;
67802;PMS5003;54601;51.378;-1.342;2023-06-14T05:36:42;7;7;
67802;PMS5003;54601;51.378;-1.342;2023-06-14T05:39:07;6;6;
67802;PMS5003;54601;51.378;-1.342;2023-06-14T05:41:33;8;7;
67802;PMS5003;54601;51.378;-1.342;2023-06-14T05:43:58;6;6;
67802;PMS5003;54601;51.378;-1.342;2023-06-14T05:46:23;7;7;
67802;PMS5003;54601;51.378;-1.342;2023-06-14T05:48:48;8;7;
67802;PMS5003;54601;51.378;-1.342;2023-06-14T05:51:14;9;7;
67802;PMS5003;54601;51.378;-1.342;2023-06-14T05:53:39;9;8;
67802;PMS5003;54601;51.378;-1.342;2023-06-14T05:56:05;4;4;
67802;PMS5003;54601;51.378;-1.342;2023-06-14T05:58:30;7;7;
67802;PMS5003;54601;51.378;-1.342;2023-06-14T06:00:55;6;6;
67802;PMS5003;54601;51.378;-1.342;2023-06-14T06:03:21;5;5;
67802;PMS5003;54601;51.378;-1.342;2023-06-14T06:05:46;6;6;
67802;PMS5003;54601;51.378;-1.342;2023-06-14T06:08:11;7;7;
67802;PMS5003;54601;51.378;-1.342;2023-06-14T06:10:37;8;8;
67802;PMS5003;54601;51.378;-1.342;2023-06-14T06:13:02;5;5;
67802;PMS5003;54601;51.378;-1.342;2023-06-14T06:15:27;6;6;
67802;PMS5003;54601;51.378;-1.342;2023-06-14T06:17:53;6;6;
67802;PMS5003;54601;51.378;-1.342;2023-06-14T06:20:18;6;6;
67802;PMS5003;54601;51.378;-1.342;2023-06-14T06:22:44;6;6;
67802;PMS5003;54601;51.378;-1.342;2023-06-14T06:25:09;8;8;
67802;PMS5003;54601;51.378;-1.342;2023-06-14T06:27:34;5;4;
67802;PMS5003;54601;51.378;-1.342;2023-06-14T06:30:00;7;7;
67802;PMS5003;54601;51.378;-1.342;2023-06-14T06:32:25;7;7;
67802;PMS5003;54601;51.378;-1.342;2023-06-14T06:34:50;7;7;
67802;PMS5003;54601;51.378;-1.342;2023-06-14T06:37:16;6;6;
67802;PMS5003;54601;51.378;-1.342;2023-06-14T06:39:41;7;6;
67802;PMS5003;54601;51.378;-1.342;2023-06-14T06:42:06;7;7;
67802;PMS5003;54601;51.378;-1.342;2023-06-14T06:44:32;8;7;
67802;PMS5003;54601;51.378;-1.342;2023-06-14T06:46:57;5;5;
67802;PMS5003;54601;51.378;-1.342;2023-06-14T06:49:22;6;5;
67802;PMS5003;54601;51.378;-1.342;2023-06-14T06:54:13;6;6;
67802;PMS5003;54601;51.378;-1.342;2023-06-14T06:56:38;6;6;
67802;PMS5003;54601;51.378;-1.342;2023-06-14T06:59:04;6;6;
67802;PMS5003;54601;51.378;-1.342;2023-06-14T07:01:29;6;6;
67802;PMS5003;54601;51.378;-1.342;2023-06-14T07:03:54;8;8;
67802;PMS5003;54601;51.378;-1.342;2023-06-14T07:06:20;4;4;
67802;PMS5003;54601;51.378;-1.342;2023-06-14T07:08:45;5;5;
67802;PMS5003;54601;51.378;-1.342;2023-06-14T07:11:11;7;7;
67802;PMS5003;54601;51.378;-1.342;2023-06-14T07:13:36;6;6;
67802;PMS5003;54601;51.378;-1.342;2023-06-14T07:16:04;6;6;
67802;PMS5003;54601;51.378;-1.342;2023-06-14T07:18:27;8;7;
67802;PMS5003;54601;51.378;-1.342;2023-06-14T07:20:52;5;5;
67802;PMS5003;54601;51.378;-1.342;2023-06-14T07:23:17;7;7;
67802;PMS5003;54601;51.378;-1.342;2023-06-14T07:25:43;6;5;
67802;PMS5003;54601;51.378;-1.342;2023-06-14T07:28:08;5;5;
67802;PMS5003;54601;51.378;-1.342;2023-06-14T07:30:33;7;6;
67802;PMS5003;54601;51.378;-1.342;2023-06-14T07:32:59;4;4;
67802;PMS5003;54601;51.378;-1.342;2023-06-14T07:35:24;6;6;
67802;PMS5003;54601;51.378;-1.342;2023-06-14T07:37:49;5;5;
67802;PMS5003;54601;51.378;-1.342;2023-06-14T07:40:15;6;6;
67802;PMS5003;54601;51.378;-1.342;2023-06-14T07:42:40;5;5;
67802;PMS5003;54601;51.378;-1.342;2023-06-14T07:45:06;5;5;
67802;PMS5003;54601;51.378;-1.342;2023-06-14T07:47:31;6;6;
67802;PMS5003;54601;51.378;-1.342;2023-06-14T07:49:56;4;4;
67802;PMS5003;54601;51.378;-1.342;2023-06-14T07:52:21;6;6;
67802;PMS5003;54601;51.378;-1.342;2023-06-14T07:54:47;5;5;
67802;PMS5003;54601;51.378;-1.342;2023-06-14T07:57:12;7;7;
67802;PMS5003;54601;51.378;-1.342;2023-06-14T07:59:37;5;5;
67802;PMS5003;54601;51.378;-1.342;2023-06-14T08:02:03;7;7;
67802;PMS5003;54601;51.378;-1.342;2023-06-14T08:04:28;7;6;
67802;PMS5003;54601;51.378;-1.342;2023-06-14T08:06:53;6;6;
67802;PMS5003;54601;51.378;-1.342;2023-06-14T08:09:19;7;7;
67802;PMS5003;54601;51.378;-1.342;2023-06-14T08:11:44;8;7;
67802;PMS5003;54601;51.378;-1.342;2023-06-14T08:14:09;5;4;
67802;PMS5003;54601;51.378;-1.342;2023-06-14T08:16:34;7;7;
67802;PMS5003;54601;51.378;-1.342;2023-06-14T08:19:00;5;5;
67802;PMS5003;54601;51.378;-1.342;2023-06-14T08:21:25;6;6;
67802;PMS5003;54601;51.378;-1.342;2023-06-14T08:23:50;6;6;
67802;PMS5003;54601;51.378;-1.342;2023-06-14T08:26:16;4;4;
67802;PMS5003;54601;51.378;-1.342;2023-06-14T08:28:41;5;5;
67802;PMS5003;54601;51.378;-1.342;2023-06-14T08:31:08;6;6;
67802;PMS5003;54601;51.378;-1.342;2023-06-14T08:33:32;3;3;
67802;PMS5003;54601;51.378;-1.342;2023-06-14T08:35:57;5;5;
67802;PMS5003;54601;51.378;-1.342;2023-06-14T08:38:22;5;5;
67802;PMS5003;54601;51.378;-1.342;2023-06-14T08:40:48;6;6;
67802;PMS5003;54601;51.378;-1.342;2023-06-14T08:43:13;5;5;
67802;PMS5003;54601;51.378;-1.342;2023-06-14T08:45:38;6;6;
67802;PMS5003;54601;51.378;-1.342;2023-06-14T08:48:04;6;6;
67802;PMS5003;54601;51.378;-1.342;2023-06-14T08:50:29;5;5;
67802;PMS5003;54601;51.378;-1.342;2023-06-14T08:52:54;6;6;
67802;PMS5003;54601;51.378;-1.342;2023-06-14T08:55:20;6;6;
67802;PMS5003;54601;51.378;-1.342;2023-06-14T08:57:45;4;4;
67802;PMS5003;54601;51.378;-1.342;2023-06-14T09:00:10;6;6;
67802;PMS5003;54601;51.378;-1.342;2023-06-14T09:02:36;6;5;
67802;PMS5003;54601;51.378;-1.342;2023-06-14T09:05:01;6;6;
67802;PMS5003;54601;51.378;-1.342;2023-06-14T09:07:26;6;6;
67802;PMS5003;54601;51.378;-1.342;2023-06-14T09:12:17;6;6;
67802;PMS5003;54601;51.378;-1.342;2023-06-14T09:14:42;6;6;
67802;PMS5003;54601;51.378;-1.342;2023-06-14T09:17:07;7;7;
67802;PMS5003;54601;51.378;-1.342;2023-06-14T09:19:33;6;5;
67802;PMS5003;54601;51.378;-1.342;2023-06-14T09:21:58;5;5;
67802;PMS5003;54601;51.378;-1.342;2023-06-14T09:24:24;6;6;
67802;PMS5003;54601;51.378;-1.342;2023-06-14T09:26:50;8;7;
67802;PMS5003;54601;51.378;-1.342;2023-06-14T09:29:15;6;6;
67802;PMS5003;54601;51.378;-1.342;2023-06-14T09:31:39;6;6;
67802;PMS5003;54601;51.378;-1.342;2023-06-14T09:34:05;5;5;
67802;PMS5003;54601;51.378;-1.342;2023-06-14T09:36:30;7;7;
67802;PMS5003;54601;51.378;-1.342;2023-06-14T09:38:55;5;5;
67802;PMS5003;54601;51.378;-1.342;2023-06-14T09:41:21;5;5;
67802;PMS5003;54601;51.378;-1.342;2023-06-14T09:43:46;7;6;
67802;PMS5003;54601;51.378;-1.342;2023-06-14T09:46:11;6;6;
67802;PMS5003;54601;51.378;-1.342;2023-06-14T09:48:36;6;6;
67802;PMS5003;54601;51.378;-1.342;2023-06-14T09:51:01;7;6;
67802;PMS5003;54601;51.378;-1.342;2023-06-14T09:53:27;5;5;
67802;PMS5003;54601;51.378;-1.342;2023-06-14T09:55:52;7;7;
67802;PMS5003;54601;51.378;-1.342;2023-06-14T09:58:17;5;5;
67802;PMS5003;54601;51.378;-1.342;2023-06-14T10:00:43;4;4;
67802;PMS5003;54601;51.378;-1.342;2023-06-14T10:03:11;6;6;
67802;PMS5003;54601;51.378;-1.342;2023-06-14T10:05:33;8;8;
67802;PMS5003;54601;51.378;-1.342;2023-06-14T10:07:59;6;6;
67802;PMS5003;54601;51.378;-1.342;2023-06-14T10:10:24;7;6;
67802;PMS5003;54601;51.378;-1.342;2023-06-14T10:12:49;6;6;
67802;PMS5003;54601;51.378;-1.342;2023-06-14T10:15:17;6;6;
67802;PMS5003;54601;51.378;-1.342;2023-06-14T10:17:42;9;9;
67802;PMS5003;54601;51.378;-1.342;2023-06-14T10:22:32;6;6;
67802;PMS5003;54601;51.378;-1.342;2023-06-14T10:24:56;5;5;
67802;PMS5003;54601;51.378;-1.342;2023-06-14T10:27:21;6;6;
67802;PMS5003;54601;51.378;-1.342;2023-06-14T10:32:12;7;6;
67802;PMS5003;54601;51.378;-1.342;2023-06-14T10:34:38;9;8;
67802;PMS5003;54601;51.378;-1.342;2023-06-14T10:37:03;8;7;
67802;PMS5003;54601;51.378;-1.342;2023-06-14T10:39:28;7;7;
67802;PMS5003;54601;51.378;-1.342;2023-06-14T10:41:54;6;6;
67802;PMS5003;54601;51.378;-1.342;2023-06-14T10:46:45;4;4;
67802;PMS5003;54601;51.378;-1.342;2023-06-14T10:49:09;6;6;
67802;PMS5003;54601;51.378;-1.342;2023-06-14T10:51:38;5;5;
67802;PMS5003;54601;51.378;-1.342;2023-06-14T10:53:59;6;6;
67802;PMS5003;54601;51.378;-1.342;2023-06-14T10:56:26;6;6;
67802;PMS5003;54601;51.378;-1.342;2023-06-14T10:58:50;6;6;
67802;PMS5003;54601;51.378;-1.342;2023-06-14T11:01:15;8;7;
67802;PMS5003;54601;51.378;-1.342;2023-06-14T11:03:43;7;7;
67802;PMS5003;54601;51.378;-1.342;2023-06-14T11:06:12;6;6;
67802;PMS5003;54601;51.378;-1.342;2023-06-14T11:10:57;7;7;
67802;PMS5003;54601;51.378;-1.342;2023-06-14T11:13:23;4;4;
67802;PMS5003;54601;51.378;-1.342;2023-06-14T11:15:47;6;6;
67802;PMS5003;54601;51.378;-1.342;2023-06-14T11:18:13;7;7;
67802;PMS5003;54601;51.378;-1.342;2023-06-14T11:20:39;8;7;
67802;PMS5003;54601;51.378;-1.342;2023-06-14T11:23:04;5;5;
67802;PMS5003;54601;51.378;-1.342;2023-06-14T11:25:29;5;5;
67802;PMS5003;54601;51.378;-1.342;2023-06-14T11:27:54;7;7;
67802;PMS5003;54601;51.378;-1.342;2023-06-14T11:30:19;5;5;
67802;PMS5003;54601;51.378;-1.342;2023-06-14T11:32:46;7;7;
67802;PMS5003;54601;51.378;-1.342;2023-06-14T11:35:10;7;6;
67802;PMS5003;54601;51.378;-1.342;2023-06-14T11:37:36;7;7;
67802;PMS5003;54601;51.378;-1.342;2023-06-14T11:40:01;7;7;
67802;PMS5003;54601;51.378;-1.342;2023-06-14T11:42:26;6;6;
67802;PMS5003;54601;51.378;-1.342;2023-06-14T11:44:51;8;7;
67802;PMS5003;54601;51.378;-1.342;2023-06-14T11:47:17;6;6;
67802;PMS5003;54601;51.378;-1.342;2023-06-14T11:49:42;5;5;
67802;PMS5003;54601;51.378;-1.342;2023-06-14T11:52:07;8;7;
67802;PMS5003;54601;51.378;-1.342;2023-06-14T11:54:33;5;5;
67802;PMS5003;54601;51.378;-1.342;2023-06-14T11:56:58;8;8;
67802;PMS5003;54601;51.378;-1.342;2023-06-14T11:59:23;7;6;
67802;PMS5003;54601;51.378;-1.342;2023-06-14T12:01:48;10;8;
67802;PMS5003;54601;51.378;-1.342;2023-06-14T12:04:14;9;9;
67802;PMS5003;54601;51.378;-1.342;2023-06-14T12:06:39;7;6;
67802;PMS5003;54601;51.378;-1.342;2023-06-14T12:09:05;7;7;
67802;PMS5003;54601;51.378;-1.342;2023-06-14T12:11:32;7;7;
67802;PMS5003;54601;51.378;-1.342;2023-06-14T12:13:56;9;9;
67802;PMS5003;54601;51.378;-1.342;2023-06-14T12:16:20;7;7;
67802;PMS5003;54601;51.378;-1.342;2023-06-14T12:18:46;7;7;
67802;PMS5003;54601;51.378;-1.342;2023-06-14T12:21:11;8;8;
67802;PMS5003;54601;51.378;-1.342;2023-06-14T12:23:42;7;7;
67802;PMS5003;54601;51.378;-1.342;2023-06-14T12:26:02;8;8;
67802;PMS5003;54601;51.378;-1.342;2023-06-14T12:28:28;9;9;
67802;PMS5003;54601;51.378;-1.342;2023-06-14T12:30:52;8;8;
67802;PMS5003;54601;51.378;-1.342;2023-06-14T12:33:18;7;7;
67802;PMS5003;54601;51.378;-1.342;2023-06-14T12:35:43;7;7;
67802;PMS5003;54601;51.378;-1.342;2023-06-14T12:38:08;8;8;
67802;PMS5003;54601;51.378;-1.342;2023-06-14T12:40:34;8;8;
67802;PMS5003;54601;51.378;-1.342;2023-06-14T12:42:59;9;8;
67802;PMS5003;54601;51.378;-1.342;2023-06-14T12:45:24;8;7;
67802;PMS5003;54601;51.378;-1.342;2023-06-14T12:47:50;8;8;
67802;PMS5003;54601;51.378;-1.342;2023-06-14T12:50:15;8;8;
67802;PMS5003;54601;51.378;-1.342;2023-06-14T12:52:40;8;8;
67802;PMS5003;54601;51.378;-1.342;2023-06-14T12:55:06;9;9;
67802;PMS5003;54601;51.378;-1.342;2023-06-14T12:57:31;9;8;
67802;PMS5003;54601;51.378;-1.342;2023-06-14T12:59:56;9;9;
67802;PMS5003;54601;51.378;-1.342;2023-06-14T13:02:21;8;7;
67802;PMS5003;54601;51.378;-1.342;2023-06-14T13:04:47;8;8;
67802;PMS5003;54601;51.378;-1.342;2023-06-14T13:07:12;11;10;
67802;PMS5003;54601;51.378;-1.342;2023-06-14T13:09:37;9;9;
67802;PMS5003;54601;51.378;-1.342;2023-06-14T13:12:03;10;10;
67802;PMS5003;54601;51.378;-1.342;2023-06-14T13:14:28;8;8;
67802;PMS5003;54601;51.378;-1.342;2023-06-14T13:16:53;11;11;
67802;PMS5003;54601;51.378;-1.342;2023-06-14T13:19:19;8;8;
67802;PMS5003;54601;51.378;-1.342;2023-06-14T13:21:44;11;10;
67802;PMS5003;54601;51.378;-1.342;2023-06-14T13:24:09;11;11;
67802;PMS5003;54601;51.378;-1.342;2023-06-14T13:26:35;11;10;
67802;PMS5003;54601;51.378;-1.342;2023-06-14T13:29:00;8;8;
67802;PMS5003;54601;51.378;-1.342;2023-06-14T13:31:25;11;10;
67802;PMS5003;54601;51.378;-1.342;2023-06-14T13:33:50;10;10;
67802;PMS5003;54601;51.378;-1.342;2023-06-14T13:36:16;11;11;
67802;PMS5003;54601;51.378;-1.342;2023-06-14T13:38:41;11;10;
67802;PMS5003;54601;51.378;-1.342;2023-06-14T13:41:06;11;11;
67802;PMS5003;54601;51.378;-1.342;2023-06-14T13:43:31;9;9;
67802;PMS5003;54601;51.378;-1.342;2023-06-14T13:45:57;10;10;
67802;PMS5003;54601;51.378;-1.342;2023-06-14T13:48:22;10;10;
67802;PMS5003;54601;51.378;-1.342;2023-06-14T13:50:47;11;11;
67802;PMS5003;54601;51.378;-1.342;2023-06-14T13:53:12;9;9;
67802;PMS5003;54601;51.378;-1.342;2023-06-14T13:55:37;12;12;
67802;PMS5003;54601;51.378;-1.342;2023-06-14T13:58:03;11;11;
67802;PMS5003;54601;51.378;-1.342;2023-06-14T14:00:28;10;10;
67802;PMS5003;54601;51.378;-1.342;2023-06-14T14:02:53;14;14;
67802;PMS5003;54601;51.378;-1.342;2023-06-14T14:05:19;10;10;
67802;PMS5003;54601;51.378;-1.342;2023-06-14T14:07:44;12;12;
67802;PMS5003;54601;51.378;-1.342;2023-06-14T14:10:10;11;11;
67802;PMS5003;54601;51.378;-1.342;2023-06-14T14:12:35;11;11;
67802;PMS5003;54601;51.378;-1.342;2023-06-14T14:15:00;11;11;
67802;PMS5003;54601;51.378;-1.342;2023-06-14T14:17:26;10;10;
67802;PMS5003;54601;51.378;-1.342;2023-06-14T14:19:51;12;12;
67802;PMS5003;54601;51.378;-1.342;2023-06-14T14:22:16;11;11;
67802;PMS5003;54601;51.378;-1.342;2023-06-14T14:24:42;10;10;
67802;PMS5003;54601;51.378;-1.342;2023-06-14T14:27:07;13;12;
67802;PMS5003;54601;51.378;-1.342;2023-06-14T14:29:32;15;15;
67802;PMS5003;54601;51.378;-1.342;2023-06-14T14:31:58;12;12;
67802;PMS5003;54601;51.378;-1.342;2023-06-14T14:34:24;11;11;
67802;PMS5003;54601;51.378;-1.342;2023-06-14T14:36:48;12;12;
67802;PMS5003;54601;51.378;-1.342;2023-06-14T14:39:13;13;13;
67802;PMS5003;54601;51.378;-1.342;2023-06-14T14:41:39;12;12;
67802;PMS5003;54601;51.378;-1.342;2023-06-14T14:44:04;11;11;
67802;PMS5003;54601;51.378;-1.342;2023-06-14T14:46:29;12;12;
67802;PMS5003;54601;51.378;-1.342;2023-06-14T14:48:55;11;11;
67802;PMS5003;54601;51.378;-1.342;2023-06-14T14:51:20;13;13;
67802;PMS5003;54601;51.378;-1.342;2023-06-14T14:53:45;14;13;
67802;PMS5003;54601;51.378;-1.342;2023-06-14T14:56:11;13;13;
67802;PMS5003;54601;51.378;-1.342;2023-06-14T14:58:36;12;12;
67802;PMS5003;54601;51.378;-1.342;2023-06-14T15:01:01;11;11;
67802;PMS5003;54601;51.378;-1.342;2023-06-14T15:03:26;15;14;
67802;PMS5003;54601;51.378;-1.342;2023-06-14T15:05:51;12;12;
67802;PMS5003;54601;51.378;-1.342;2023-06-14T15:08:16;13;13;
67802;PMS5003;54601;51.378;-1.342;2023-06-14T15:10:42;12;12;
67802;PMS5003;54601;51.378;-1.342;2023-06-14T15:13:07;12;12;
67802;PMS5003;54601;51.378;-1.342;2023-06-14T15:15:32;12;11;
67802;PMS5003;54601;51.378;-1.342;2023-06-14T15:17:58;12;12;
67802;PMS5003;54601;51.378;-1.342;2023-06-14T15:20:23;12;12;
67802;PMS5003;54601;51.378;-1.342;2023-06-14T15:22:48;13;12;
67802;PMS5003;54601;51.378;-1.342;2023-06-14T15:25:14;15;15;
67802;PMS5003;54601;51.378;-1.342;2023-06-14T15:27:39;13;12;
67802;PMS5003;54601;51.378;-1.342;2023-06-14T15:30:05;14;14;
67802;PMS5003;54601;51.378;-1.342;2023-06-14T15:32:30;15;14;
67802;PMS5003;54601;51.378;-1.342;2023-06-14T15:34:55;13;13;
67802;PMS5003;54601;51.378;-1.342;2023-06-14T15:37:20;13;13;
67802;PMS5003;54601;51.378;-1.342;2023-06-14T15:39:45;13;13;
67802;PMS5003;54601;51.378;-1.342;2023-06-14T15:42:11;12;12;
67802;PMS5003;54601;51.378;-1.342;2023-06-14T15:44:36;14;14;
67802;PMS5003;54601;51.378;-1.342;2023-06-14T15:47:01;15;14;
67802;PMS5003;54601;51.378;-1.342;2023-06-14T15:49:27;14;14;
67802;PMS5003;54601;51.378;-1.342;2023-06-14T15:51:52;16;16;
67802;PMS5003;54601;51.378;-1.342;2023-06-14T15:54:17;15;15;
67802;PMS5003;54601;51.378;-1.342;2023-06-14T15:56:43;16;16;
67802;PMS5003;54601;51.378;-1.342;2023-06-14T15:59:08;15;15;
67802;PMS5003;54601;51.378;-1.342;2023-06-14T16:01:33;17;17;
67802;PMS5003;54601;51.378;-1.342;2023-06-14T16:03:58;19;19;
67802;PMS5003;54601;51.378;-1.342;2023-06-14T16:06:23;17;17;
67802;PMS5003;54601;51.378;-1.342;2023-06-14T16:08:48;18;17;
67802;PMS5003;54601;51.378;-1.342;2023-06-14T16:11:14;17;17;
67802;PMS5003;54601;51.378;-1.342;2023-06-14T16:13:39;19;19;
67802;PMS5003;54601;51.378;-1.342;2023-06-14T16:16:04;21;20;
67802;PMS5003;54601;51.378;-1.342;2023-06-14T16:18:29;20;20;